createdAt,value
2022-08-05T00:00:43.097Z,13.32
2022-08-05T00:03:15.675Z,13.15
2022-08-05T00:06:04.661Z,11.48
2022-08-05T00:08:36.199Z,13.40
2022-08-05T00:11:30.172Z,14.27
2022-08-05T00:13:58.184Z,16.45
2022-08-05T00:16:35.396Z,13.98
2022-08-05T00:19:05.219Z,14.00
2022-08-05T00:21:35.891Z,13.65
2022-08-05T00:24:10.561Z,13.52
2022-08-05T00:26:46.701Z,14.93
2022-08-05T00:30:29.254Z,13.80
2022-08-05T00:32:59.780Z,12.18
2022-08-05T00:35:33.325Z,18.63
2022-08-05T00:38:03.492Z,18.55
2022-08-05T00:40:53.289Z,18.30
2022-08-05T00:43:21.549Z,14.95
2022-08-05T00:45:49.528Z,17.10
2022-08-05T00:48:27.670Z,14.52
2022-08-05T00:50:59.593Z,13.88
2022-08-05T00:54:00.575Z,14.15
2022-08-05T00:56:24.973Z,16.30
2022-08-05T00:58:52.667Z,17.83
2022-08-05T01:01:24.935Z,16.35
2022-08-05T01:04:14.304Z,19.88
2022-08-05T01:06:48.537Z,21.73
2022-08-05T01:09:20.008Z,27.55
2022-08-05T01:11:51.705Z,23.27
2022-08-05T01:14:28.420Z,24.50
2022-08-05T01:17:58.033Z,25.27
2022-08-05T01:20:31.625Z,27.23
2022-08-05T01:23:15.295Z,25.08
2022-08-05T01:27:01.041Z,20.83
2022-08-05T01:29:51.840Z,24.00
2022-08-05T01:32:23.841Z,21.52
2022-08-05T01:34:58.343Z,23.13
2022-08-05T01:37:32.246Z,26.60
2022-08-05T01:40:03.037Z,26.65
2022-08-05T01:42:33.063Z,25.80
2022-08-05T01:45:03.463Z,20.60
2022-08-05T01:47:39.277Z,21.23
2022-08-05T01:50:15.314Z,20.85
2022-08-05T01:52:44.642Z,24.70
2022-08-05T01:55:19.873Z,26.27
2022-08-05T01:58:11.867Z,24.60
2022-08-05T02:00:44.399Z,25.30
2022-08-05T02:03:29.030Z,23.38
2022-08-05T02:06:03.748Z,25.05
2022-08-05T02:08:58.549Z,24.70
2022-08-05T02:11:32.751Z,33.58
2022-08-05T02:14:07.233Z,23.83
2022-08-05T02:18:31.988Z,26.85
2022-08-05T02:20:41.671Z,25.67
2022-08-05T02:23:12.187Z,28.95
2022-08-05T02:25:49.229Z,32.63
2022-08-05T02:28:28.882Z,29.20
2022-08-05T02:32:04.862Z,24.75
2022-08-05T02:34:34.008Z,26.53
2022-08-05T02:37:05.473Z,27.83
2022-08-05T02:39:36.991Z,30.13
2022-08-05T02:42:10.820Z,26.88
2022-08-05T02:44:56.364Z,27.88
2022-08-05T02:47:26.016Z,27.15
2022-08-05T02:51:17.978Z,26.25
2022-08-05T02:54:03.422Z,31.27
2022-08-05T02:56:33.683Z,23.80
2022-08-05T02:59:02.484Z,30.25
2022-08-05T03:01:33.277Z,23.38
2022-08-05T03:04:13.998Z,21.65
2022-08-05T03:06:54.363Z,28.60
2022-08-05T03:09:37.608Z,25.38
2022-08-05T03:12:11.756Z,27.83
2022-08-05T03:14:46.006Z,27.98
2022-08-05T03:17:16.656Z,25.58
2022-08-05T03:19:45.570Z,26.75
2022-08-05T03:22:16.832Z,26.00
2022-08-05T03:24:50.931Z,26.92
2022-08-05T03:27:19.767Z,28.33
2022-08-05T03:30:07.530Z,25.83
2022-08-05T03:32:36.112Z,26.63
2022-08-05T03:35:04.484Z,27.60
2022-08-05T03:37:46.558Z,30.30
2022-08-05T03:40:31.144Z,30.10
2022-08-05T03:43:15.912Z,28.02
2022-08-05T03:45:58.037Z,29.05
2022-08-05T03:48:27.566Z,26.00
2022-08-05T03:52:38.086Z,29.33
2022-08-05T03:56:00.722Z,25.93
2022-08-05T03:56:52.813Z,27.83
2022-08-05T03:59:26.082Z,25.77
2022-08-05T04:01:58.903Z,31.85
2022-08-05T04:04:30.007Z,29.13
2022-08-05T04:06:59.200Z,26.88
2022-08-05T04:09:27.950Z,32.88
2022-08-05T04:11:58.173Z,29.10
2022-08-05T04:14:29.823Z,30.52
2022-08-05T04:17:00.078Z,32.72
2022-08-05T04:19:29.762Z,29.10
2022-08-05T04:22:09.508Z,34.50
2022-08-05T04:24:43.828Z,33.63
2022-08-05T04:27:15.293Z,33.57
2022-08-05T04:29:43.573Z,35.72
2022-08-05T04:33:13.094Z,29.65
2022-08-05T04:36:15.804Z,30.02
2022-08-05T04:38:39.576Z,34.53
2022-08-05T04:41:09.602Z,35.00
2022-08-05T04:43:48.151Z,33.65
2022-08-05T04:46:28.231Z,32.53
2022-08-05T04:48:58.686Z,31.65
2022-08-05T04:51:30.309Z,37.88
2022-08-05T04:53:59.291Z,32.15
2022-08-05T04:56:34.326Z,30.65
2022-08-05T04:59:21.996Z,40.20
2022-08-05T05:02:06.850Z,38.35
2022-08-05T05:04:47.568Z,42.97
2022-08-05T05:07:23.944Z,38.45
2022-08-05T05:09:57.421Z,39.15
2022-08-05T05:12:27.562Z,34.43
2022-08-05T05:15:03.759Z,35.08
2022-08-05T05:17:57.067Z,33.80
2022-08-05T05:20:28.328Z,36.70
2022-08-05T05:22:56.846Z,33.42
2022-08-05T05:25:40.421Z,31.20
2022-08-05T05:28:09.673Z,33.60
2022-08-05T05:30:41.868Z,30.65
2022-08-05T05:33:17.095Z,31.83
2022-08-05T05:35:47.483Z,27.40
2022-08-05T05:38:22.862Z,27.20
2022-08-05T05:40:55.072Z,24.95
2022-08-05T05:43:54.201Z,28.83
2022-08-05T05:46:15.788Z,30.02
2022-08-05T05:48:48.323Z,33.38
2022-08-05T05:51:23.931Z,25.00
2022-08-05T05:53:57.697Z,26.27
2022-08-05T05:56:33.306Z,31.73
2022-08-05T05:59:05.248Z,33.97
2022-08-05T06:01:37.539Z,26.15
2022-08-05T06:04:11.695Z,28.02
2022-08-05T06:07:42.467Z,26.77
2022-08-05T06:10:29.250Z,21.53
2022-08-05T06:12:57.270Z,20.10
2022-08-05T06:15:25.824Z,18.17
2022-08-05T06:18:15.327Z,21.63
2022-08-05T06:20:43.296Z,22.40
2022-08-05T06:23:16.662Z,22.02
2022-08-05T06:26:13.387Z,21.45
2022-08-05T06:28:32.566Z,20.88
2022-08-05T06:31:01.138Z,20.92
2022-08-05T06:34:07.156Z,22.30
2022-08-05T06:36:29.638Z,24.05
2022-08-05T06:39:18.074Z,24.42
2022-08-05T06:41:50.667Z,19.55
2022-08-05T06:44:22.061Z,18.80
2022-08-05T06:46:51.268Z,23.27
2022-08-05T06:50:01.421Z,21.52
2022-08-05T06:52:36.978Z,17.85
2022-08-05T06:54:59.539Z,15.43
2022-08-05T06:58:03.714Z,16.75
2022-08-05T07:00:22.314Z,18.65
2022-08-05T07:02:54.416Z,18.87
2022-08-05T07:05:37.245Z,20.07
2022-08-05T07:08:06.419Z,15.50
2022-08-05T07:10:39.245Z,16.50
2022-08-05T07:13:57.786Z,19.80
2022-08-05T07:18:00.303Z,17.70
2022-08-05T07:20:10.521Z,20.13
2022-08-05T07:22:29.064Z,18.08
2022-08-05T07:24:59.879Z,21.95
2022-08-05T07:27:57.400Z,23.58
2022-08-05T07:30:39.149Z,24.63
2022-08-05T07:33:10.413Z,19.00
2022-08-05T07:36:03.727Z,27.08
2022-08-05T07:38:42.835Z,23.15
2022-08-05T07:42:14.318Z,26.73
2022-08-05T07:44:14.489Z,25.50
2022-08-05T07:46:49.274Z,19.65
2022-08-05T07:49:18.906Z,20.50
2022-08-05T07:51:53.717Z,16.05
2022-08-05T07:54:31.413Z,16.33
2022-08-05T07:57:17.982Z,14.52
2022-08-05T07:59:52.534Z,18.50
2022-08-05T08:02:26.478Z,17.20
2022-08-05T08:04:55.120Z,17.00
2022-08-05T08:07:23.378Z,14.63
2022-08-05T08:09:54.916Z,17.35
2022-08-05T08:12:37.518Z,13.43
2022-08-05T08:15:15.404Z,15.57
2022-08-05T08:17:52.309Z,17.58
2022-08-05T08:21:00.312Z,15.60
2022-08-05T08:24:00.323Z,15.75
2022-08-05T08:26:02.888Z,17.38
2022-08-05T08:28:36.050Z,14.10
2022-08-05T08:31:05.273Z,13.37
2022-08-05T08:33:38.063Z,10.82
2022-08-05T08:38:57.738Z,16.15
2022-08-05T08:41:51.287Z,14.68
2022-08-05T08:45:22.721Z,14.05
2022-08-05T08:47:21.876Z,13.90
2022-08-05T08:50:23.042Z,12.80
2022-08-05T08:52:51.790Z,13.00
2022-08-05T08:56:02.521Z,13.77
2022-08-05T08:58:16.717Z,11.85
2022-08-05T09:00:44.784Z,13.85
2022-08-05T09:03:16.138Z,14.03
2022-08-05T09:06:09.161Z,11.10
2022-08-05T09:08:40.087Z,10.40
2022-08-05T09:11:13.617Z,10.10
2022-08-05T09:14:00.803Z,13.23
2022-08-05T09:16:32.235Z,9.73
2022-08-05T09:19:00.131Z,8.88
2022-08-05T09:22:23.110Z,10.07
2022-08-05T09:24:17.733Z,8.85
2022-08-05T09:26:48.356Z,9.40
2022-08-05T09:29:21.062Z,13.13
2022-08-05T09:32:42.353Z,7.28
2022-08-05T09:34:54.884Z,7.47
2022-08-05T09:38:16.512Z,7.95
2022-08-05T09:40:31.077Z,8.43
2022-08-05T09:43:00.192Z,10.10
2022-08-05T09:46:06.860Z,13.07
2022-08-05T09:48:32.363Z,11.65
2022-08-05T09:51:01.859Z,6.97
2022-08-05T09:53:53.550Z,7.43
2022-08-05T09:56:27.487Z,11.25
2022-08-05T09:58:59.880Z,7.23
2022-08-05T10:01:32.478Z,7.90
2022-08-05T10:04:03.671Z,6.47
2022-08-05T10:06:32.015Z,9.35
2022-08-05T10:09:27.266Z,6.80
2022-08-05T10:11:56.211Z,7.28
2022-08-05T10:14:26.820Z,11.07
2022-08-05T10:16:57.315Z,9.07
2022-08-05T10:19:31.858Z,6.47
2022-08-05T10:22:15.640Z,7.75
2022-08-05T10:24:57.901Z,8.40
2022-08-05T10:28:09.709Z,7.13
2022-08-05T10:31:20.052Z,8.00
2022-08-05T10:33:08.969Z,5.85
2022-08-05T10:35:43.901Z,6.38
2022-08-05T10:38:14.162Z,2.87
2022-08-05T10:40:49.000Z,4.07
2022-08-05T10:43:30.837Z,4.40
2022-08-05T10:46:07.673Z,3.38
2022-08-05T10:48:56.868Z,5.83
2022-08-05T10:51:28.956Z,3.63
2022-08-05T10:54:00.972Z,6.07
2022-08-05T10:56:32.060Z,4.70
2022-08-05T11:00:01.279Z,4.65
2022-08-05T11:02:08.610Z,4.60
2022-08-05T11:04:59.441Z,4.03
2022-08-05T11:07:33.049Z,5.47
2022-08-05T11:10:23.117Z,4.68
2022-08-05T11:12:56.510Z,3.72
2022-08-05T11:16:00.803Z,1.90
2022-08-05T11:18:30.154Z,4.70
2022-08-05T11:21:11.304Z,3.30
2022-08-05T11:24:04.297Z,3.97
2022-08-05T11:26:33.346Z,5.30
2022-08-05T11:29:12.729Z,4.20
2022-08-05T11:31:58.906Z,5.32
2022-08-05T11:34:47.413Z,2.33
2022-08-05T11:38:28.067Z,2.40
2022-08-05T11:41:12.859Z,2.97
2022-08-05T11:44:05.559Z,3.08
2022-08-05T11:47:09.537Z,3.08
2022-08-05T11:49:34.062Z,3.40
2022-08-05T11:52:11.166Z,8.15
2022-08-05T11:54:41.671Z,4.32
2022-08-05T11:57:25.169Z,3.33
2022-08-05T11:59:55.016Z,6.28
2022-08-05T12:02:30.489Z,4.35
2022-08-05T12:05:01.095Z,8.02
2022-08-05T12:08:07.901Z,5.82
2022-08-05T12:10:24.801Z,5.53
2022-08-05T12:13:16.855Z,7.13
2022-08-05T12:15:49.798Z,5.22
2022-08-05T12:18:20.616Z,4.67
2022-08-05T12:20:52.845Z,5.90
2022-08-05T12:23:20.499Z,6.57
2022-08-05T12:25:56.930Z,9.05
2022-08-05T12:28:37.089Z,5.55
2022-08-05T12:32:09.562Z,7.13
2022-08-05T12:34:38.683Z,8.23
2022-08-05T12:37:17.033Z,5.50
2022-08-05T12:39:51.434Z,6.78
2022-08-05T12:42:25.430Z,7.20
2022-08-05T12:45:02.947Z,5.00
2022-08-05T12:48:01.018Z,11.45
2022-08-05T12:50:27.203Z,8.10
2022-08-05T12:52:59.742Z,7.53
2022-08-05T12:55:33.066Z,9.10
2022-08-05T12:58:49.717Z,5.50
2022-08-05T13:02:00.102Z,5.47
2022-08-05T13:03:43.021Z,11.70
2022-08-05T13:06:16.372Z,8.13
2022-08-05T13:08:52.499Z,9.30
2022-08-05T13:11:47.058Z,5.97
2022-08-05T13:14:19.413Z,8.70
2022-08-05T13:16:51.401Z,7.60
2022-08-05T13:19:22.948Z,10.60
2022-08-05T13:21:55.918Z,2.43
2022-08-05T13:24:45.003Z,1.35
2022-08-05T13:30:53.914Z,3.65
2022-08-05T13:34:21.354Z,5.10
2022-08-05T13:36:14.385Z,3.53
2022-08-05T13:38:43.277Z,3.42
2022-08-05T13:41:11.682Z,11.65
2022-08-05T13:43:44.528Z,1.48
2022-08-05T13:46:37.720Z,4.03
2022-08-05T13:49:12.742Z,1.83
2022-08-05T13:51:46.659Z,3.00
2022-08-05T13:54:16.062Z,5.07
2022-08-05T13:56:50.775Z,1.15
2022-08-05T13:59:21.318Z,1.87
2022-08-05T14:01:57.406Z,3.03
2022-08-05T14:04:49.843Z,2.45
2022-08-05T14:07:57.027Z,1.25
2022-08-05T14:10:12.378Z,0.55
2022-08-05T14:12:42.911Z,1.92
2022-08-05T14:16:04.312Z,4.35
2022-08-05T14:18:01.019Z,1.83
2022-08-05T14:20:30.825Z,2.13
2022-08-05T14:22:58.617Z,5.07
2022-08-05T14:25:28.427Z,2.90
2022-08-05T14:27:58.462Z,2.33
2022-08-05T14:30:27.869Z,1.75
2022-08-05T14:32:56.890Z,0.98
2022-08-05T14:35:37.534Z,0.63
2022-08-05T14:38:32.937Z,4.35
2022-08-05T14:41:06.685Z,1.77
2022-08-05T14:44:02.298Z,3.03
2022-08-05T14:46:29.101Z,3.80
2022-08-05T14:48:58.705Z,2.20
2022-08-05T14:51:30.808Z,1.60
2022-08-05T14:54:25.891Z,1.60
2022-08-05T14:56:54.576Z,2.97
2022-08-05T14:59:22.829Z,10.07
2022-08-05T15:01:51.444Z,1.20
2022-08-05T15:04:23.516Z,0.65
2022-08-05T15:06:56.053Z,1.97
2022-08-05T15:09:52.223Z,1.37
2022-08-05T15:12:16.452Z,1.45
2022-08-05T15:14:49.525Z,3.45
2022-08-05T15:17:47.709Z,5.25
2022-08-05T15:20:17.206Z,4.30
2022-08-05T15:22:53.979Z,1.33
2022-08-05T15:25:50.859Z,3.40
2022-08-05T15:28:14.395Z,0.75
2022-08-05T15:30:43.307Z,2.88
2022-08-05T15:33:11.730Z,2.90
2022-08-05T15:35:45.399Z,1.23
2022-08-05T15:38:34.854Z,1.50
2022-08-05T15:41:23.235Z,1.17
2022-08-05T15:43:52.224Z,2.85
2022-08-05T15:46:24.076Z,4.45
2022-08-05T15:49:01.062Z,0.65
2022-08-05T15:52:13.375Z,0.93
2022-08-05T15:54:35.176Z,4.38
2022-08-05T15:58:07.394Z,1.77
2022-08-05T16:00:56.998Z,1.70
2022-08-05T16:04:29.804Z,0.65
2022-08-05T16:06:58.156Z,2.13
2022-08-05T16:09:26.163Z,2.40
2022-08-05T16:11:54.447Z,2.13
2022-08-05T16:14:24.115Z,1.15
2022-08-05T16:16:54.727Z,3.95
2022-08-05T16:20:03.505Z,1.37
2022-08-05T16:22:13.327Z,1.30
2022-08-05T16:24:51.784Z,1.38
2022-08-05T16:27:47.279Z,2.90
2022-08-05T16:30:23.014Z,0.60
2022-08-05T16:32:55.340Z,1.30
2022-08-05T16:35:27.691Z,3.10
2022-08-05T16:38:16.109Z,16.98
2022-08-05T16:40:51.615Z,1.92
2022-08-05T16:43:24.286Z,2.53
2022-08-05T16:46:03.761Z,2.90
2022-08-05T16:48:38.920Z,1.42
2022-08-05T16:51:09.748Z,1.63
2022-08-05T16:54:04.304Z,2.72
2022-08-05T16:57:53.334Z,0.70
2022-08-05T17:00:26.306Z,2.20
2022-08-05T17:03:09.123Z,3.87
2022-08-05T17:05:44.741Z,7.82
2022-08-05T17:08:36.348Z,4.55
2022-08-05T17:11:12.544Z,1.85
2022-08-05T17:13:44.663Z,1.40
2022-08-05T17:16:29.935Z,1.38
2022-08-05T17:19:01.674Z,0.90
2022-08-05T17:21:35.680Z,1.43
2022-08-05T17:24:18.471Z,1.95
2022-08-05T17:26:53.715Z,1.50
2022-08-05T17:29:33.646Z,0.73
2022-08-05T17:32:11.781Z,1.90
2022-08-05T17:34:44.740Z,3.60
2022-08-05T17:37:41.165Z,1.00
2022-08-05T17:40:12.245Z,5.68
2022-08-05T17:42:51.369Z,3.13
2022-08-05T17:45:25.016Z,3.08
2022-08-05T17:47:57.631Z,1.63
2022-08-05T17:50:30.811Z,1.73
2022-08-05T17:53:04.642Z,2.35
2022-08-05T17:56:34.524Z,1.95
2022-08-05T17:59:05.371Z,1.20
2022-08-05T18:01:49.268Z,1.67
2022-08-05T18:04:21.049Z,2.25
2022-08-05T18:06:49.258Z,12.70
2022-08-05T18:09:19.233Z,1.33
2022-08-05T18:11:49.747Z,1.97
2022-08-05T18:14:22.251Z,10.30
2022-08-05T18:16:51.891Z,2.28
2022-08-05T18:19:22.644Z,4.13
2022-08-05T18:22:08.775Z,3.60
2022-08-05T18:24:40.361Z,2.40
2022-08-05T18:27:12.671Z,1.67
2022-08-05T18:29:54.017Z,2.67
2022-08-05T18:37:02.895Z,2.78
2022-08-05T18:40:30.979Z,7.07
2022-08-05T18:42:21.317Z,2.95
2022-08-05T18:44:55.673Z,4.10
2022-08-05T18:47:26.396Z,2.17
2022-08-05T18:50:12.879Z,1.05
2022-08-05T18:52:51.262Z,3.17
2022-08-05T18:56:25.389Z,2.15
2022-08-05T18:59:01.050Z,3.58
2022-08-05T19:01:47.846Z,2.50
2022-08-05T19:04:23.753Z,5.68
2022-08-05T19:06:54.447Z,7.80
2022-08-05T19:09:23.530Z,3.42
2022-08-05T19:12:01.022Z,4.50
2022-08-05T19:14:59.218Z,3.00
2022-08-05T19:17:22.198Z,5.25
2022-08-05T19:19:56.114Z,3.13
2022-08-05T19:22:27.808Z,3.60
2022-08-05T19:25:00.817Z,4.75
2022-08-05T19:27:30.818Z,4.20
2022-08-05T19:30:01.554Z,4.72
2022-08-05T19:32:32.121Z,3.83
2022-08-05T19:35:05.807Z,6.03
2022-08-05T19:38:04.669Z,5.43
2022-08-05T19:40:24.210Z,4.88
2022-08-05T19:43:00.872Z,1.88
2022-08-05T19:45:36.934Z,5.43
2022-08-05T19:48:05.651Z,2.65
2022-08-05T19:50:35.107Z,1.73
2022-08-05T19:53:09.418Z,2.38
2022-08-05T19:56:19.234Z,2.50
2022-08-05T19:58:29.465Z,1.35
2022-08-05T20:01:02.211Z,5.10
2022-08-05T20:03:38.714Z,1.90
2022-08-05T20:09:53.573Z,1.13
2022-08-05T20:12:23.748Z,2.77
2022-08-05T20:14:52.490Z,2.53
2022-08-05T20:17:24.692Z,4.00
2022-08-05T20:19:56.568Z,5.90
2022-08-05T20:22:27.132Z,1.00
2022-08-05T20:24:55.351Z,3.15
2022-08-05T20:27:26.694Z,5.20
2022-08-05T20:29:58.288Z,3.13
2022-08-05T20:32:28.622Z,4.40
2022-08-05T20:34:57.007Z,3.83
2022-08-05T20:38:06.227Z,0.80
2022-08-05T20:40:14.203Z,1.30
2022-08-05T20:42:41.839Z,3.40
2022-08-05T20:45:12.214Z,2.40
2022-08-05T20:47:42.284Z,1.35
2022-08-05T20:50:12.080Z,4.10
2022-08-05T20:52:42.215Z,2.30
2022-08-05T20:56:07.274Z,3.40
2022-08-05T20:57:58.409Z,7.22
2022-08-05T21:00:44.434Z,3.05
2022-08-05T21:03:21.517Z,4.55
2022-08-05T21:05:53.829Z,2.77
2022-08-05T21:08:26.682Z,5.55
2022-08-05T21:10:58.352Z,3.80
2022-08-05T21:13:48.354Z,4.45
2022-08-05T21:16:20.823Z,2.67
2022-08-05T21:18:52.350Z,2.22
2022-08-05T21:21:20.423Z,4.80
2022-08-05T21:23:52.989Z,1.48
2022-08-05T21:26:20.825Z,3.22
2022-08-05T21:28:56.227Z,5.85
2022-08-05T21:31:41.303Z,5.80
2022-08-05T21:34:11.456Z,2.85
2022-08-05T21:36:39.569Z,2.08
2022-08-05T21:39:14.249Z,4.03
2022-08-05T21:41:52.809Z,3.60
2022-08-05T21:44:28.678Z,3.35
2022-08-05T21:46:58.238Z,2.80
2022-08-05T21:49:59.336Z,1.20
2022-08-05T21:52:27.894Z,4.20
2022-08-05T21:56:09.640Z,6.28
2022-08-05T21:58:48.225Z,2.75
2022-08-05T22:01:25.900Z,4.68
2022-08-05T22:03:54.057Z,3.10
2022-08-05T22:06:35.581Z,4.07
2022-08-05T22:09:14.557Z,2.50
2022-08-05T22:11:46.970Z,2.50
2022-08-05T22:14:33.713Z,2.58
2022-08-05T22:17:06.807Z,2.95
2022-08-05T22:20:00.270Z,3.70
2022-08-05T22:22:29.828Z,3.40
2022-08-05T22:25:18.067Z,2.88
2022-08-05T22:28:11.166Z,5.10
2022-08-05T22:30:55.345Z,4.57
2022-08-05T22:33:55.898Z,7.00
2022-08-05T22:36:15.134Z,2.77
2022-08-05T22:38:48.185Z,3.40
2022-08-05T22:42:05.554Z,5.13
2022-08-05T22:44:05.818Z,3.40
2022-08-05T22:46:39.964Z,4.40
2022-08-05T22:49:12.443Z,3.17
2022-08-05T22:52:05.945Z,3.80
2022-08-05T22:54:37.360Z,3.50
2022-08-05T22:57:08.553Z,5.27
2022-08-05T22:59:43.966Z,5.68
2022-08-05T23:02:17.891Z,9.15
2022-08-05T23:04:51.949Z,7.70
2022-08-05T23:07:22.251Z,5.53
2022-08-05T23:10:01.731Z,4.40
2022-08-05T23:12:32.585Z,5.32
2022-08-05T23:15:01.346Z,5.63
2022-08-05T23:17:37.156Z,4.17
2022-08-05T23:20:10.546Z,5.33
2022-08-05T23:22:47.736Z,5.20
2022-08-05T23:25:53.523Z,5.95
2022-08-05T23:28:08.828Z,3.97
2022-08-05T23:30:40.633Z,6.82
2022-08-05T23:33:22.092Z,4.50
2022-08-05T23:35:56.303Z,7.87
2022-08-05T23:38:25.907Z,10.18
2022-08-05T23:40:55.303Z,6.93
2022-08-05T23:43:37.312Z,5.82
2022-08-05T23:46:20.215Z,6.40
2022-08-05T23:49:52.209Z,9.18
2022-08-05T23:52:30.732Z,7.90
2022-08-05T23:55:00.745Z,7.13
2022-08-05T23:57:32.769Z,8.98
